Terminal Aerodrome Forecast
Issued by NWS

Home | Current Version | Previous Version | Text Only | Print | Product List | Glossary On
Versions: 1 2 3 4 5 6 7 8 9 10 11 12
915
FTUS45 KABQ 251739
TAFTCC
TAF
KTCC 251739Z 2518/2618 23018G27KT P6SM SKC
     FM260100 22010KT P6SM SCT200
     FM260900 27008KT P6SM BKN200
     FM261700 28011G19KT P6SM BKN180=

USA.gov is the U.S. government's official web portal to all federal, state and local government web resources and services.